sensor_id;sensor_type;location;lat;lon;timestamp;pressure;altitude;pressure_sealevel;temperature;humidity
15405;BME280;7801;48.124;11.590;2024-02-14T00:00:01;95864.06;;;6.01;74.88
15405;BME280;7801;48.124;11.590;2024-02-14T00:02:27;95864.25;;;5.94;74.62
15405;BME280;7801;48.124;11.590;2024-02-14T00:04:53;95867.53;;;5.79;74.80
15405;BME280;7801;48.124;11.590;2024-02-14T00:07:19;95866.50;;;5.85;74.69
15405;BME280;7801;48.124;11.590;2024-02-14T00:09:45;95870.63;;;6.03;74.54
15405;BME280;7801;48.124;11.590;2024-02-14T00:12:10;95873.81;;;6.00;74.61
15405;BME280;7801;48.124;11.590;2024-02-14T00:14:37;95872.75;;;6.01;74.41
15405;BME280;7801;48.124;11.590;2024-02-14T00:17:03;95866.88;;;5.94;75.09
15405;BME280;7801;48.124;11.590;2024-02-14T00:19:28;95863.84;;;5.53;76.59
15405;BME280;7801;48.124;11.590;2024-02-14T00:21:54;95871.28;;;5.62;76.70
15405;BME280;7801;48.124;11.590;2024-02-14T00:24:19;95869.78;;;5.93;75.62
15405;BME280;7801;48.124;11.590;2024-02-14T00:26:45;95880.09;;;5.99;74.76
15405;BME280;7801;48.124;11.590;2024-02-14T00:29:11;95876.56;;;5.89;75.07
15405;BME280;7801;48.124;11.590;2024-02-14T00:31:36;95872.53;;;5.81;75.35
15405;BME280;7801;48.124;11.590;2024-02-14T00:34:02;95872.56;;;5.86;75.47
15405;BME280;7801;48.124;11.590;2024-02-14T00:36:27;95876.25;;;5.85;75.28
15405;BME280;7801;48.124;11.590;2024-02-14T00:38:52;95877.50;;;5.50;76.57
15405;BME280;7801;48.124;11.590;2024-02-14T00:41:18;95875.50;;;5.63;76.81
15405;BME280;7801;48.124;11.590;2024-02-14T00:43:43;95873.97;;;5.40;77.45
15405;BME280;7801;48.124;11.590;2024-02-14T00:46:08;95873.03;;;5.29;78.25
15405;BME280;7801;48.124;11.590;2024-02-14T00:48:34;95883.00;;;5.27;78.40
15405;BME280;7801;48.124;11.590;2024-02-14T00:50:59;95881.97;;;5.50;77.62
15405;BME280;7801;48.124;11.590;2024-02-14T00:53:25;95878.84;;;5.80;75.90
15405;BME280;7801;48.124;11.590;2024-02-14T00:55:50;95880.06;;;5.94;74.71
15405;BME280;7801;48.124;11.590;2024-02-14T00:58:15;95877.37;;;5.89;74.92
15405;BME280;7801;48.124;11.590;2024-02-14T01:00:40;95874.91;;;6.09;73.85
15405;BME280;7801;48.124;11.590;2024-02-14T01:03:06;95876.25;;;5.85;74.37
15405;BME280;7801;48.124;11.590;2024-02-14T01:05:31;95877.47;;;5.99;74.12
15405;BME280;7801;48.124;11.590;2024-02-14T01:07:57;95886.31;;;5.66;75.09
15405;BME280;7801;48.124;11.590;2024-02-14T01:10:22;95883.69;;;5.66;75.69
15405;BME280;7801;48.124;11.590;2024-02-14T01:12:48;95886.38;;;5.71;75.28
15405;BME280;7801;48.124;11.590;2024-02-14T01:15:13;95887.56;;;5.85;74.69
15405;BME280;7801;48.124;11.590;2024-02-14T01:17:39;95885.72;;;5.86;74.45
15405;BME280;7801;48.124;11.590;2024-02-14T01:20:05;95887.56;;;5.85;74.58
15405;BME280;7801;48.124;11.590;2024-02-14T01:22:32;95883.81;;;6.03;74.17
15405;BME280;7801;48.124;11.590;2024-02-14T01:24:57;95880.44;;;5.81;74.81
15405;BME280;7801;48.124;11.590;2024-02-14T01:27:24;95887.72;;;5.96;74.54
15405;BME280;7801;48.124;11.590;2024-02-14T01:29:49;95882.50;;;6.06;73.82
15405;BME280;7801;48.124;11.590;2024-02-14T01:32:15;95887.22;;;5.99;74.40
15405;BME280;7801;48.124;11.590;2024-02-14T01:34:40;95889.59;;;6.00;73.77
15405;BME280;7801;48.124;11.590;2024-02-14T01:37:07;95887.00;;;6.05;73.90
15405;BME280;7801;48.124;11.590;2024-02-14T01:39:35;95890.97;;;5.81;74.90
15405;BME280;7801;48.124;11.590;2024-02-14T01:42:00;95888.06;;;5.82;75.05
15405;BME280;7801;48.124;11.590;2024-02-14T01:44:26;95879.75;;;5.91;74.84
15405;BME280;7801;48.124;11.590;2024-02-14T01:46:51;95886.75;;;5.80;75.10
15405;BME280;7801;48.124;11.590;2024-02-14T01:49:18;95893.53;;;5.76;75.18
15405;BME280;7801;48.124;11.590;2024-02-14T01:51:44;95887.75;;;6.01;74.61
15405;BME280;7801;48.124;11.590;2024-02-14T01:54:12;95887.84;;;6.11;73.53
15405;BME280;7801;48.124;11.590;2024-02-14T01:56:39;95888.84;;;6.37;72.29
15405;BME280;7801;48.124;11.590;2024-02-14T01:59:05;95883.47;;;6.27;72.59
15405;BME280;7801;48.124;11.590;2024-02-14T02:01:31;95888.78;;;5.73;74.37
15405;BME280;7801;48.124;11.590;2024-02-14T02:03:57;95882.78;;;5.82;74.36
15405;BME280;7801;48.124;11.590;2024-02-14T02:06:23;95891.19;;;6.01;73.75
15405;BME280;7801;48.124;11.590;2024-02-14T02:08:49;95897.81;;;6.09;72.73
15405;BME280;7801;48.124;11.590;2024-02-14T02:11:14;95896.72;;;6.05;73.17
15405;BME280;7801;48.124;11.590;2024-02-14T02:13:40;95894.19;;;5.88;73.76
15405;BME280;7801;48.124;11.590;2024-02-14T02:16:06;95897.12;;;6.18;72.34
15405;BME280;7801;48.124;11.590;2024-02-14T02:18:31;95892.47;;;5.99;73.16
15405;BME280;7801;48.124;11.590;2024-02-14T02:20:57;95894.44;;;6.13;73.06
15405;BME280;7801;48.124;11.590;2024-02-14T02:23:22;95895.59;;;6.28;71.66
15405;BME280;7801;48.124;11.590;2024-02-14T02:25:48;95899.50;;;6.20;71.93
15405;BME280;7801;48.124;11.590;2024-02-14T02:28:13;95895.66;;;6.33;71.10
15405;BME280;7801;48.124;11.590;2024-02-14T02:30:39;95902.59;;;6.12;71.69
15405;BME280;7801;48.124;11.590;2024-02-14T02:33:05;95902.41;;;6.24;71.74
15405;BME280;7801;48.124;11.590;2024-02-14T02:35:32;95895.41;;;6.34;71.25
15405;BME280;7801;48.124;11.590;2024-02-14T02:37:58;95892.56;;;6.41;70.81
15405;BME280;7801;48.124;11.590;2024-02-14T02:40:24;95894.50;;;6.24;71.08
15405;BME280;7801;48.124;11.590;2024-02-14T02:42:50;95893.31;;;5.82;72.72
15405;BME280;7801;48.124;11.590;2024-02-14T02:45:18;95890.81;;;6.19;71.92
15405;BME280;7801;48.124;11.590;2024-02-14T02:47:43;95891.72;;;6.35;70.85
15405;BME280;7801;48.124;11.590;2024-02-14T02:50:08;95893.84;;;6.06;71.73
15405;BME280;7801;48.124;11.590;2024-02-14T02:52:34;95896.72;;;6.05;72.20
15405;BME280;7801;48.124;11.590;2024-02-14T02:55:00;95898.91;;;5.86;72.47
15405;BME280;7801;48.124;11.590;2024-02-14T02:57:28;95902.78;;;5.78;73.25
15405;BME280;7801;48.124;11.590;2024-02-14T02:59:54;95904.38;;;5.79;73.54
15405;BME280;7801;48.124;11.590;2024-02-14T03:02:20;95896.59;;;5.90;72.90
15405;BME280;7801;48.124;11.590;2024-02-14T03:04:46;95912.06;;;5.86;73.05
15405;BME280;7801;48.124;11.590;2024-02-14T03:07:12;95894.91;;;5.83;73.09
15405;BME280;7801;48.124;11.590;2024-02-14T03:09:37;95897.81;;;6.09;71.75
15405;BME280;7801;48.124;11.590;2024-02-14T03:12:03;95893.28;;;5.99;72.23
15405;BME280;7801;48.124;11.590;2024-02-14T03:14:32;95890.81;;;6.19;71.47
15405;BME280;7801;48.124;11.590;2024-02-14T03:17:00;95894.13;;;5.83;72.74
15405;BME280;7801;48.124;11.590;2024-02-14T03:19:26;95897.94;;;5.92;72.17
15405;BME280;7801;48.124;11.590;2024-02-14T03:21:53;95904.88;;;6.03;71.69
15405;BME280;7801;48.124;11.590;2024-02-14T03:24:19;95905.41;;;6.05;71.06
15405;BME280;7801;48.124;11.590;2024-02-14T03:26:44;95908.16;;;6.15;70.57
15405;BME280;7801;48.124;11.590;2024-02-14T03:29:09;95904.88;;;6.03;71.08
15405;BME280;7801;48.124;11.590;2024-02-14T03:31:35;95909.75;;;5.90;71.43
15405;BME280;7801;48.124;11.590;2024-02-14T03:34:01;95913.25;;;5.95;70.93
15405;BME280;7801;48.124;11.590;2024-02-14T03:36:26;95907.25;;;6.05;70.71
15405;BME280;7801;48.124;11.590;2024-02-14T03:38:56;95904.31;;;5.96;70.88
15405;BME280;7801;48.124;11.590;2024-02-14T03:41:22;95900.06;;;5.95;71.13
15405;BME280;7801;48.124;11.590;2024-02-14T03:43:47;95908.53;;;5.75;71.60
15405;BME280;7801;48.124;11.590;2024-02-14T03:46:14;95913.75;;;5.70;72.07
15405;BME280;7801;48.124;11.590;2024-02-14T03:48:39;95910.31;;;5.70;71.94
15405;BME280;7801;48.124;11.590;2024-02-14T03:51:06;95907.75;;;5.75;72.28
15405;BME280;7801;48.124;11.590;2024-02-14T03:53:32;95900.03;;;5.90;71.57
15405;BME280;7801;48.124;11.590;2024-02-14T03:55:58;95908.97;;;5.67;72.07
15405;BME280;7801;48.124;11.590;2024-02-14T03:58:23;95907.00;;;5.79;71.89
15405;BME280;7801;48.124;11.590;2024-02-14T04:00:52;95905.50;;;5.62;72.43
15405;BME280;7801;48.124;11.590;2024-02-14T04:03:17;95909.88;;;5.78;71.99
15405;BME280;7801;48.124;11.590;2024-02-14T04:05:43;95909.28;;;5.71;71.87
15405;BME280;7801;48.124;11.590;2024-02-14T04:08:09;95909.38;;;5.54;72.62
15405;BME280;7801;48.124;11.590;2024-02-14T04:10:39;95909.69;;;5.36;73.23
15405;BME280;7801;48.124;11.590;2024-02-14T04:13:04;95916.25;;;5.33;73.42
15405;BME280;7801;48.124;11.590;2024-02-14T04:15:31;95900.87;;;5.25;73.99
15405;BME280;7801;48.124;11.590;2024-02-14T04:17:56;95906.91;;;5.04;74.56
15405;BME280;7801;48.124;11.590;2024-02-14T04:20:22;95911.03;;;5.16;73.93
15405;BME280;7801;48.124;11.590;2024-02-14T04:22:47;95910.09;;;5.49;72.76
15405;BME280;7801;48.124;11.590;2024-02-14T04:25:12;95903.41;;;5.64;71.97
15405;BME280;7801;48.124;11.590;2024-02-14T04:27:38;95902.75;;;5.51;72.44
15405;BME280;7801;48.124;11.590;2024-02-14T04:30:04;95897.56;;;5.57;71.99
15405;BME280;7801;48.124;11.590;2024-02-14T04:32:29;95900.69;;;5.53;72.20
15405;BME280;7801;48.124;11.590;2024-02-14T04:34:55;95895.13;;;5.50;71.46
15405;BME280;7801;48.124;11.590;2024-02-14T04:37:21;95893.13;;;5.13;72.63
15405;BME280;7801;48.124;11.590;2024-02-14T04:39:46;95901.00;;;5.35;72.24
15405;BME280;7801;48.124;11.590;2024-02-14T04:42:12;95900.13;;;5.51;71.49
15405;BME280;7801;48.124;11.590;2024-02-14T04:44:37;95902.94;;;5.23;72.56
15405;BME280;7801;48.124;11.590;2024-02-14T04:47:03;95905.47;;;5.35;71.55
15405;BME280;7801;48.124;11.590;2024-02-14T04:49:28;95902.84;;;5.35;71.98
15405;BME280;7801;48.124;11.590;2024-02-14T04:51:56;95900.53;;;5.16;72.87
15405;BME280;7801;48.124;11.590;2024-02-14T04:54:22;95906.75;;;5.32;72.12
15405;BME280;7801;48.124;11.590;2024-02-14T04:56:47;95897.88;;;5.38;71.96
15405;BME280;7801;48.124;11.590;2024-02-14T04:59:13;95903.03;;;5.77;70.09
15405;BME280;7801;48.124;11.590;2024-02-14T05:01:38;95898.19;;;5.69;69.77
15405;BME280;7801;48.124;11.590;2024-02-14T05:04:05;95894.22;;;5.66;69.98
15405;BME280;7801;48.124;11.590;2024-02-14T05:06:31;95901.94;;;5.73;69.41
15405;BME280;7801;48.124;11.590;2024-02-14T05:08:57;95894.50;;;5.92;68.89
15405;BME280;7801;48.124;11.590;2024-02-14T05:11:22;95893.00;;;5.74;69.22
15405;BME280;7801;48.124;11.590;2024-02-14T05:13:47;95897.28;;;5.80;69.29
15405;BME280;7801;48.124;11.590;2024-02-14T05:16:17;95893.13;;;5.62;69.70
15405;BME280;7801;48.124;11.590;2024-02-14T05:18:43;95898.13;;;5.59;69.78
15405;BME280;7801;48.124;11.590;2024-02-14T05:21:08;95899.56;;;5.49;70.32
15405;BME280;7801;48.124;11.590;2024-02-14T05:23:34;95898.94;;;5.37;70.59
15405;BME280;7801;48.124;11.590;2024-02-14T05:26:00;95886.97;;;5.51;70.42
15405;BME280;7801;48.124;11.590;2024-02-14T05:28:27;95887.59;;;5.59;69.68
15405;BME280;7801;48.124;11.590;2024-02-14T05:30:53;95889.34;;;5.53;70.47
15405;BME280;7801;48.124;11.590;2024-02-14T05:33:18;95888.44;;;5.42;70.50
15405;BME280;7801;48.124;11.590;2024-02-14T05:35:47;95881.06;;;5.39;70.52
15405;BME280;7801;48.124;11.590;2024-02-14T05:38:12;95895.13;;;5.28;71.05
15405;BME280;7801;48.124;11.590;2024-02-14T05:40:38;95895.19;;;5.33;71.20
15405;BME280;7801;48.124;11.590;2024-02-14T05:43:04;95899.56;;;5.49;70.62
15405;BME280;7801;48.124;11.590;2024-02-14T05:45:30;95903.94;;;5.39;70.94
15405;BME280;7801;48.124;11.590;2024-02-14T05:47:55;95899.28;;;5.24;71.79
15405;BME280;7801;48.124;11.590;2024-02-14T05:50:20;95902.59;;;5.63;70.45
15405;BME280;7801;48.124;11.590;2024-02-14T05:52:45;95902.81;;;5.83;69.69
15405;BME280;7801;48.124;11.590;2024-02-14T05:55:11;95901.13;;;5.72;69.79
15405;BME280;7801;48.124;11.590;2024-02-14T05:57:36;95908.25;;;5.72;70.15
15405;BME280;7801;48.124;11.590;2024-02-14T06:00:02;95905.12;;;5.75;70.15
15405;BME280;7801;48.124;11.590;2024-02-14T06:02:28;95907.44;;;5.93;69.24
15405;BME280;7801;48.124;11.590;2024-02-14T06:04:54;95911.50;;;5.84;69.95
15405;BME280;7801;48.124;11.590;2024-02-14T06:07:19;95909.19;;;5.87;69.46
15405;BME280;7801;48.124;11.590;2024-02-14T06:09:44;95908.09;;;5.83;69.83
15405;BME280;7801;48.124;11.590;2024-02-14T06:12:10;95912.03;;;5.81;70.00
15405;BME280;7801;48.124;11.590;2024-02-14T06:14:36;95911.22;;;6.02;69.48
15405;BME280;7801;48.124;11.590;2024-02-14T06:17:01;95910.47;;;5.85;69.88
15405;BME280;7801;48.124;11.590;2024-02-14T06:19:27;95917.78;;;5.78;70.48
15405;BME280;7801;48.124;11.590;2024-02-14T06:21:53;95920.91;;;5.97;69.59
15405;BME280;7801;48.124;11.590;2024-02-14T06:24:18;95920.19;;;6.06;69.50
15405;BME280;7801;48.124;11.590;2024-02-14T06:26:45;95918.66;;;6.10;69.12
15405;BME280;7801;48.124;11.590;2024-02-14T06:29:10;95925.19;;;6.35;67.82
15405;BME280;7801;48.124;11.590;2024-02-14T06:31:35;95918.88;;;6.36;67.55
15405;BME280;7801;48.124;11.590;2024-02-14T06:34:01;95931.69;;;6.27;68.05
15405;BME280;7801;48.124;11.590;2024-02-14T06:36:26;95933.59;;;6.32;68.10
15405;BME280;7801;48.124;11.590;2024-02-14T06:38:51;95921.84;;;6.49;67.40
15405;BME280;7801;48.124;11.590;2024-02-14T06:41:17;95934.22;;;6.44;67.54
15405;BME280;7801;48.124;11.590;2024-02-14T06:43:42;95941.66;;;6.52;66.79
15405;BME280;7801;48.124;11.590;2024-02-14T06:46:07;95937.72;;;6.54;66.64
15405;BME280;7801;48.124;11.590;2024-02-14T06:48:33;95940.31;;;6.49;67.02
15405;BME280;7801;48.124;11.590;2024-02-14T06:50:59;95936.63;;;6.50;66.59
15405;BME280;7801;48.124;11.590;2024-02-14T06:53:24;95934.31;;;6.27;67.38
15405;BME280;7801;48.124;11.590;2024-02-14T06:55:50;95941.34;;;6.16;68.07
15405;BME280;7801;48.124;11.590;2024-02-14T06:58:15;95930.37;;;5.98;68.75
15405;BME280;7801;48.124;11.590;2024-02-14T07:00:40;95932.47;;;5.74;69.75
15405;BME280;7801;48.124;11.590;2024-02-14T07:03:05;95930.63;;;5.96;69.25
15405;BME280;7801;48.124;11.590;2024-02-14T07:05:31;95943.06;;;6.33;68.30
15405;BME280;7801;48.124;11.590;2024-02-14T07:07:56;95949.69;;;6.35;68.24
15405;BME280;7801;48.124;11.590;2024-02-14T07:10:22;95945.91;;;6.26;67.89
15405;BME280;7801;48.124;11.590;2024-02-14T07:12:47;95952.75;;;6.27;68.36
15405;BME280;7801;48.124;11.590;2024-02-14T07:15:12;95956.00;;;6.07;68.85
15405;BME280;7801;48.124;11.590;2024-02-14T07:17:38;95953.87;;;6.31;68.06
15405;BME280;7801;48.124;11.590;2024-02-14T07:20:04;95963.72;;;6.41;67.26
15405;BME280;7801;48.124;11.590;2024-02-14T07:22:30;95968.06;;;6.57;66.36
15405;BME280;7801;48.124;11.590;2024-02-14T07:24:55;95960.19;;;6.62;65.13
15405;BME280;7801;48.124;11.590;2024-02-14T07:27:21;95962.34;;;6.70;64.85
15405;BME280;7801;48.124;11.590;2024-02-14T07:29:46;95965.78;;;6.71;64.73
15405;BME280;7801;48.124;11.590;2024-02-14T07:32:12;95970.78;;;6.72;64.42
15405;BME280;7801;48.124;11.590;2024-02-14T07:34:40;95973.38;;;6.67;64.63
15405;BME280;7801;48.124;11.590;2024-02-14T07:37:06;95976.91;;;6.78;64.08
15405;BME280;7801;48.124;11.590;2024-02-14T07:39:32;95977.50;;;6.90;63.06
15405;BME280;7801;48.124;11.590;2024-02-14T07:41:57;95977.34;;;6.65;64.48
15405;BME280;7801;48.124;11.590;2024-02-14T07:44:23;95985.91;;;6.82;63.61
15405;BME280;7801;48.124;11.590;2024-02-14T07:46:51;95986.72;;;6.82;64.09
15405;BME280;7801;48.124;11.590;2024-02-14T07:49:17;95980.94;;;6.85;63.61
15405;BME280;7801;48.124;11.590;2024-02-14T07:51:42;95989.59;;;6.81;63.55
15405;BME280;7801;48.124;11.590;2024-02-14T07:54:08;95991.34;;;7.02;62.76
15405;BME280;7801;48.124;11.590;2024-02-14T07:56:33;95984.50;;;7.11;62.94
15405;BME280;7801;48.124;11.590;2024-02-14T07:58:58;95987.78;;;7.23;62.25
15405;BME280;7801;48.124;11.590;2024-02-14T08:01:25;95979.59;;;7.25;62.48
15405;BME280;7801;48.124;11.590;2024-02-14T08:03:50;95984.34;;;7.23;61.69
15405;BME280;7801;48.124;11.590;2024-02-14T08:06:16;95983.66;;;7.43;61.43
15405;BME280;7801;48.124;11.590;2024-02-14T08:08:41;95984.72;;;7.52;60.82
15405;BME280;7801;48.124;11.590;2024-02-14T08:11:07;95986.94;;;7.18;61.98
15405;BME280;7801;48.124;11.590;2024-02-14T08:13:32;95986.25;;;7.38;62.15
15405;BME280;7801;48.124;11.590;2024-02-14T08:15:57;95991.59;;;7.53;61.12
15405;BME280;7801;48.124;11.590;2024-02-14T08:18:24;95987.13;;;7.53;60.90
15405;BME280;7801;48.124;11.590;2024-02-14T08:20:49;95987.91;;;7.54;61.40
15405;BME280;7801;48.124;11.590;2024-02-14T08:23:14;95986.66;;;7.67;60.58
15405;BME280;7801;48.124;11.590;2024-02-14T08:25:40;95986.59;;;7.56;60.19
15405;BME280;7801;48.124;11.590;2024-02-14T08:28:06;95996.06;;;7.42;61.16
15405;BME280;7801;48.124;11.590;2024-02-14T08:30:33;95990.19;;;7.35;61.59
15405;BME280;7801;48.124;11.590;2024-02-14T08:32:58;95998.87;;;7.31;61.59
15405;BME280;7801;48.124;11.590;2024-02-14T08:35:24;96000.03;;;7.45;61.96
15405;BME280;7801;48.124;11.590;2024-02-14T08:37:49;96001.63;;;7.46;61.88
15405;BME280;7801;48.124;11.590;2024-02-14T08:40:14;96000.84;;;7.55;61.96
15405;BME280;7801;48.124;11.590;2024-02-14T08:42:40;95994.56;;;7.62;61.62
15405;BME280;7801;48.124;11.590;2024-02-14T08:45:05;95999.53;;;7.48;61.62
15405;BME280;7801;48.124;11.590;2024-02-14T08:47:31;95994.03;;;7.65;61.16
15405;BME280;7801;48.124;11.590;2024-02-14T08:49:56;95993.31;;;7.79;61.02
15405;BME280;7801;48.124;11.590;2024-02-14T08:52:21;95980.19;;;8.10;60.24
15405;BME280;7801;48.124;11.590;2024-02-14T08:54:47;95983.69;;;8.31;59.38
15405;BME280;7801;48.124;11.590;2024-02-14T08:57:12;95984.72;;;8.30;58.99
15405;BME280;7801;48.124;11.590;2024-02-14T08:59:38;95980.28;;;8.45;58.46
15405;BME280;7801;48.124;11.590;2024-02-14T09:02:03;95986.63;;;8.54;57.44
15405;BME280;7801;48.124;11.590;2024-02-14T09:04:28;95987.41;;;8.60;57.56
15405;BME280;7801;48.124;11.590;2024-02-14T09:06:54;95989.03;;;8.66;57.16
15405;BME280;7801;48.124;11.590;2024-02-14T09:09:19;95991.13;;;8.79;56.97
15405;BME280;7801;48.124;11.590;2024-02-14T09:11:45;95991.13;;;8.84;57.54
15405;BME280;7801;48.124;11.590;2024-02-14T09:14:12;95991.41;;;8.83;56.87
15405;BME280;7801;48.124;11.590;2024-02-14T09:16:37;95990.88;;;8.60;57.07
15405;BME280;7801;48.124;11.590;2024-02-14T09:19:03;95991.94;;;8.90;57.18
15405;BME280;7801;48.124;11.590;2024-02-14T09:21:30;95986.63;;;8.59;57.23
15405;BME280;7801;48.124;11.590;2024-02-14T09:23:56;95990.84;;;9.01;56.49
15405;BME280;7801;48.124;11.590;2024-02-14T09:26:21;95988.47;;;8.79;57.14
15405;BME280;7801;48.124;11.590;2024-02-14T09:28:47;95981.88;;;8.92;57.71
15405;BME280;7801;48.124;11.590;2024-02-14T09:31:17;95984.72;;;9.21;57.12
15405;BME280;7801;48.124;11.590;2024-02-14T09:33:42;95981.50;;;9.49;56.29
15405;BME280;7801;48.124;11.590;2024-02-14T09:36:08;95975.41;;;9.54;55.64
15405;BME280;7801;48.124;11.590;2024-02-14T09:38:33;95977.22;;;9.63;55.37
15405;BME280;7801;48.124;11.590;2024-02-14T09:41:06;95980.09;;;9.72;54.48
15405;BME280;7801;48.124;11.590;2024-02-14T09:43:43;95981.06;;;9.91;54.02
15405;BME280;7801;48.124;11.590;2024-02-14T09:46:12;95980.22;;;10.01;54.37
15405;BME280;7801;48.124;11.590;2024-02-14T09:48:38;95982.56;;;10.08;54.15
15405;BME280;7801;48.124;11.590;2024-02-14T09:51:05;95983.97;;;9.95;54.11
15405;BME280;7801;48.124;11.590;2024-02-14T09:53:32;95973.91;;;9.97;54.40
15405;BME280;7801;48.124;11.590;2024-02-14T09:55:58;95985.47;;;10.16;54.61
15405;BME280;7801;48.124;11.590;2024-02-14T09:58:25;95976.72;;;10.11;54.47
15405;BME280;7801;48.124;11.590;2024-02-14T10:00:50;95976.41;;;10.27;54.36
15405;BME280;7801;48.124;11.590;2024-02-14T10:03:16;95976.81;;;10.45;54.28
15405;BME280;7801;48.124;11.590;2024-02-14T10:05:41;95974.69;;;10.47;53.37
15405;BME280;7801;48.124;11.590;2024-02-14T10:08:07;95974.84;;;10.60;53.23
15405;BME280;7801;48.124;11.590;2024-02-14T10:10:34;95976.13;;;10.68;54.13
15405;BME280;7801;48.124;11.590;2024-02-14T10:13:00;95975.56;;;10.71;52.99
15405;BME280;7801;48.124;11.590;2024-02-14T10:15:25;95971.06;;;10.72;53.82
15405;BME280;7801;48.124;11.590;2024-02-14T10:17:51;95969.59;;;10.84;53.09
15405;BME280;7801;48.124;11.590;2024-02-14T10:20:17;95974.06;;;10.94;53.39
15405;BME280;7801;48.124;11.590;2024-02-14T10:22:43;95969.03;;;10.92;53.22
15405;BME280;7801;48.124;11.590;2024-02-14T10:25:09;95962.81;;;11.02;52.79
15405;BME280;7801;48.124;11.590;2024-02-14T10:27:38;95959.84;;;10.80;53.06
15405;BME280;7801;48.124;11.590;2024-02-14T10:30:08;95959.34;;;10.78;53.23
15405;BME280;7801;48.124;11.590;2024-02-14T10:32:35;95952.25;;;10.97;52.41
15405;BME280;7801;48.124;11.590;2024-02-14T10:35:06;95957.34;;;10.93;53.11
15405;BME280;7801;48.124;11.590;2024-02-14T10:37:37;95952.16;;;11.07;52.07
15405;BME280;7801;48.124;11.590;2024-02-14T10:40:03;95949.22;;;11.09;53.04
15405;BME280;7801;48.124;11.590;2024-02-14T10:42:30;95950.72;;;11.20;52.32
15405;BME280;7801;48.124;11.590;2024-02-14T10:44:56;95946.34;;;11.29;52.01
15405;BME280;7801;48.124;11.590;2024-02-14T10:47:25;95950.59;;;11.30;52.41
15405;BME280;7801;48.124;11.590;2024-02-14T10:49:57;95956.94;;;11.34;53.48
15405;BME280;7801;48.124;11.590;2024-02-14T10:52:25;95955.22;;;11.43;52.35
15405;BME280;7801;48.124;11.590;2024-02-14T10:54:56;95961.91;;;11.41;53.41
15405;BME280;7801;48.124;11.590;2024-02-14T10:57:24;95954.66;;;11.46;54.00
15405;BME280;7801;48.124;11.590;2024-02-14T10:59:49;95958.41;;;11.45;53.61
15405;BME280;7801;48.124;11.590;2024-02-14T11:02:17;95945.91;;;11.69;53.30
15405;BME280;7801;48.124;11.590;2024-02-14T11:04:43;95946.97;;;11.68;53.58
15405;BME280;7801;48.124;11.590;2024-02-14T11:07:10;95949.50;;;11.84;53.21
15405;BME280;7801;48.124;11.590;2024-02-14T11:09:36;95939.72;;;11.98;53.41
15405;BME280;7801;48.124;11.590;2024-02-14T11:12:02;95937.56;;;13.62;87.30
15405;BME280;7801;48.124;11.590;2024-02-14T11:14:32;95935.69;;;15.86;71.75
15405;BME280;7801;48.124;11.590;2024-02-14T11:17:10;95933.91;;;17.37;59.55
15405;BME280;7801;48.124;11.590;2024-02-14T11:19:36;95931.75;;;17.98;52.13
15405;BME280;7801;48.124;11.590;2024-02-14T11:22:12;95937.28;;;18.43;52.58
15405;BME280;7801;48.124;11.590;2024-02-14T11:24:40;95934.62;;;18.64;48.52
15405;BME280;7801;48.124;11.590;2024-02-14T11:27:10;95933.38;;;18.11;46.10
15405;BME280;7801;48.124;11.590;2024-02-14T11:29:38;95921.69;;;18.15;48.34
15405;BME280;7801;48.124;11.590;2024-02-14T11:32:05;95921.25;;;16.56;42.42
15405;BME280;7801;48.124;11.590;2024-02-14T11:34:33;95929.06;;;15.44;44.71
15405;BME280;7801;48.124;11.590;2024-02-14T11:36:58;95935.44;;;14.36;47.37
15405;BME280;7801;48.124;11.590;2024-02-14T11:39:26;95928.16;;;13.79;48.82
15405;BME280;7801;48.124;11.590;2024-02-14T11:41:51;95925.22;;;13.25;50.28
15405;BME280;7801;48.124;11.590;2024-02-14T11:44:18;95924.22;;;13.35;50.39
15405;BME280;7801;48.124;11.590;2024-02-14T11:46:45;95922.84;;;13.24;51.26
15405;BME280;7801;48.124;11.590;2024-02-14T11:49:11;95923.34;;;12.93;51.66
15405;BME280;7801;48.124;11.590;2024-02-14T11:51:36;95922.28;;;12.94;51.42
15405;BME280;7801;48.124;11.590;2024-02-14T11:54:02;95910.63;;;12.90;51.62
15405;BME280;7801;48.124;11.590;2024-02-14T11:56:35;95906.78;;;12.96;51.54
15405;BME280;7801;48.124;11.590;2024-02-14T11:59:04;95903.41;;;12.91;52.05
15405;BME280;7801;48.124;11.590;2024-02-14T12:01:38;95905.41;;;12.85;51.83
15405;BME280;7801;48.124;11.590;2024-02-14T12:04:05;95900.75;;;12.91;51.52
15405;BME280;7801;48.124;11.590;2024-02-14T12:06:34;95906.38;;;12.89;51.70
15405;BME280;7801;48.124;11.590;2024-02-14T12:09:01;95896.91;;;12.83;53.03
15405;BME280;7801;48.124;11.590;2024-02-14T12:11:31;95897.81;;;12.92;52.22
15405;BME280;7801;48.124;11.590;2024-02-14T12:14:01;95893.16;;;12.84;51.70
15405;BME280;7801;48.124;11.590;2024-02-14T12:16:26;95903.25;;;12.87;51.83
15405;BME280;7801;48.124;11.590;2024-02-14T12:19:09;95910.63;;;12.90;52.07
15405;BME280;7801;48.124;11.590;2024-02-14T12:21:39;95913.19;;;12.95;51.36
15405;BME280;7801;48.124;11.590;2024-02-14T12:24:12;95906.78;;;12.96;51.38
15405;BME280;7801;48.124;11.590;2024-02-14T12:26:41;95908.06;;;12.99;51.53
15405;BME280;7801;48.124;11.590;2024-02-14T12:29:08;95903.34;;;12.96;51.82
15405;BME280;7801;48.124;11.590;2024-02-14T12:31:36;95907.69;;;13.05;51.39
15405;BME280;7801;48.124;11.590;2024-02-14T12:34:03;95905.12;;;13.14;51.00
15405;BME280;7801;48.124;11.590;2024-02-14T12:36:30;95912.34;;;13.14;51.50
15405;BME280;7801;48.124;11.590;2024-02-14T12:38:56;95909.63;;;13.19;51.27
15405;BME280;7801;48.124;11.590;2024-02-14T12:41:21;95908.19;;;13.07;51.92
15405;BME280;7801;48.124;11.590;2024-02-14T12:43:49;95905.88;;;13.20;51.01
15405;BME280;7801;48.124;11.590;2024-02-14T12:46:15;95902.41;;;13.33;50.82
15405;BME280;7801;48.124;11.590;2024-02-14T12:48:40;95905.69;;;13.30;50.18
15405;BME280;7801;48.124;11.590;2024-02-14T12:51:06;95906.44;;;13.30;51.49
15405;BME280;7801;48.124;11.590;2024-02-14T12:53:32;95907.66;;;13.24;50.77
15405;BME280;7801;48.124;11.590;2024-02-14T12:55:57;95906.75;;;13.15;50.76
15405;BME280;7801;48.124;11.590;2024-02-14T12:58:23;95904.34;;;13.14;51.25
15405;BME280;7801;48.124;11.590;2024-02-14T13:00:49;95912.12;;;13.10;51.14